createdAt,value
2023-04-23T00:01:20.784Z,8.43
2023-04-23T00:03:50.494Z,9.80
2023-04-23T00:06:18.885Z,9.65
2023-04-23T00:08:47.232Z,9.32
2023-04-23T00:11:14.441Z,10.77
2023-04-23T00:13:41.960Z,9.68
2023-04-23T00:16:11.024Z,8.27
2023-04-23T00:18:38.425Z,9.60
2023-04-23T00:21:05.569Z,8.13
2023-04-23T00:23:32.587Z,10.32
2023-04-23T00:25:59.658Z,8.82
2023-04-23T00:28:27.091Z,8.43
2023-04-23T00:30:54.361Z,9.18
2023-04-23T00:33:22.330Z,9.65
2023-04-23T00:35:49.252Z,9.27
2023-04-23T00:38:16.403Z,9.27
2023-04-23T00:40:44.197Z,9.23
2023-04-23T00:43:12.085Z,9.05
2023-04-23T00:45:39.254Z,8.65
2023-04-23T00:48:07.494Z,9.52
2023-04-23T00:50:34.807Z,9.73
2023-04-23T00:53:01.737Z,8.40
2023-04-23T00:55:28.926Z,9.50
2023-04-23T00:57:56.254Z,9.25
2023-04-23T01:00:23.674Z,10.20
2023-04-23T01:02:53.369Z,9.27
2023-04-23T01:05:21.445Z,10.35
2023-04-23T01:07:48.671Z,9.52
2023-04-23T01:10:18.761Z,7.63
2023-04-23T01:12:46.655Z,7.45
2023-04-23T01:15:14.435Z,8.30
2023-04-23T01:17:43.532Z,8.40
2023-04-23T01:20:11.116Z,8.95
2023-04-23T01:22:38.726Z,8.18
2023-04-23T01:25:08.344Z,7.20
2023-04-23T01:27:36.356Z,7.53
2023-04-23T01:30:06.028Z,5.95
2023-04-23T01:32:33.424Z,5.40
2023-04-23T01:35:00.761Z,6.22
2023-04-23T01:37:28.493Z,6.20
2023-04-23T01:39:56.358Z,6.63
2023-04-23T01:42:23.837Z,6.18
2023-04-23T01:44:50.912Z,6.38
2023-04-23T01:47:19.829Z,6.53
2023-04-23T01:49:47.081Z,6.40
2023-04-23T01:52:14.081Z,6.40
2023-04-23T01:54:41.364Z,6.78
2023-04-23T01:57:10.032Z,7.20
2023-04-23T01:59:37.989Z,6.30
2023-04-23T02:02:05.305Z,6.85
2023-04-23T02:04:33.224Z,6.57
2023-04-23T02:07:01.409Z,7.10
2023-04-23T02:09:28.479Z,6.88
2023-04-23T02:11:57.513Z,7.40
2023-04-23T02:14:24.542Z,8.90
2023-04-23T02:16:51.644Z,9.00
2023-04-23T02:19:19.003Z,9.10
2023-04-23T02:21:46.487Z,7.43
2023-04-23T02:24:13.913Z,9.23
2023-04-23T02:26:41.086Z,8.75
2023-04-23T02:29:08.050Z,8.52
2023-04-23T02:31:35.217Z,7.60
2023-04-23T02:34:02.742Z,7.68
2023-04-23T02:36:32.654Z,8.18
2023-04-23T02:38:59.635Z,8.73
2023-04-23T02:41:26.787Z,7.90
2023-04-23T02:43:53.893Z,8.02
2023-04-23T02:46:20.905Z,7.20
2023-04-23T02:48:48.234Z,6.78
2023-04-23T02:51:15.735Z,7.50
2023-04-23T02:53:42.886Z,7.30
2023-04-23T02:56:10.103Z,6.35
2023-04-23T02:58:37.228Z,7.43
2023-04-23T03:01:05.406Z,6.75
2023-04-23T03:03:34.030Z,5.80
2023-04-23T03:06:03.186Z,5.80
2023-04-23T03:08:30.826Z,6.55
2023-04-23T03:10:58.628Z,6.82
2023-04-23T03:13:27.129Z,6.82
2023-04-23T03:15:55.628Z,7.35
2023-04-23T03:18:23.312Z,6.18
2023-04-23T03:20:50.400Z,6.82
2023-04-23T03:23:17.581Z,6.18
2023-04-23T03:25:44.986Z,6.35
2023-04-23T03:28:12.303Z,6.70
2023-04-23T03:30:39.692Z,6.38
2023-04-23T03:33:07.688Z,6.07
2023-04-23T03:35:34.943Z,6.65
2023-04-23T03:38:01.891Z,6.85
2023-04-23T03:40:31.621Z,6.45
2023-04-23T03:42:58.947Z,7.80
2023-04-23T03:45:26.634Z,7.60
2023-04-23T03:47:54.021Z,7.45
2023-04-23T03:50:21.609Z,8.07
2023-04-23T03:52:49.001Z,7.30
2023-04-23T03:55:16.036Z,7.78
2023-04-23T03:57:43.125Z,8.48
2023-04-23T04:00:13.799Z,8.18
2023-04-23T04:02:41.352Z,7.60
2023-04-23T04:05:09.959Z,7.78
2023-04-23T04:07:37.874Z,7.72
2023-04-23T04:10:07.819Z,7.82
2023-04-23T04:12:34.782Z,7.32
2023-04-23T04:15:03.292Z,7.78
2023-04-23T04:17:30.682Z,6.05
2023-04-23T04:19:58.122Z,7.00
2023-04-23T04:22:25.464Z,6.45
2023-04-23T04:24:53.158Z,6.63
2023-04-23T04:27:20.283Z,6.97
2023-04-23T04:29:48.905Z,6.80
2023-04-23T04:32:16.672Z,5.90
2023-04-23T04:34:44.205Z,6.22
2023-04-23T04:37:11.686Z,6.47
2023-04-23T04:39:38.641Z,5.63
2023-04-23T04:42:07.456Z,5.93
2023-04-23T04:44:37.757Z,6.07
2023-04-23T04:47:07.794Z,6.47
2023-04-23T04:49:34.952Z,6.50
2023-04-23T04:52:02.349Z,6.82
2023-04-23T04:54:29.453Z,6.38
2023-04-23T04:56:56.932Z,6.90
2023-04-23T04:59:23.979Z,5.72
2023-04-23T05:01:51.272Z,7.07
2023-04-23T05:04:18.501Z,7.78
2023-04-23T05:06:45.577Z,6.40
2023-04-23T05:09:12.880Z,7.35
2023-04-23T05:11:41.140Z,6.45
2023-04-23T05:14:08.500Z,6.70
2023-04-23T05:16:35.832Z,7.50
2023-04-23T05:19:06.519Z,6.60
2023-04-23T05:21:33.872Z,7.47
2023-04-23T05:24:01.864Z,6.32
2023-04-23T05:26:29.717Z,6.78
2023-04-23T05:28:56.966Z,6.88
2023-04-23T05:31:23.982Z,7.40
2023-04-23T05:33:51.267Z,6.95
2023-04-23T05:36:18.713Z,7.85
2023-04-23T05:38:45.855Z,7.47
2023-04-23T05:41:12.876Z,7.00
2023-04-23T05:43:39.847Z,8.15
2023-04-23T05:46:07.982Z,7.13
2023-04-23T05:48:35.238Z,7.00
2023-04-23T05:51:02.578Z,6.75
2023-04-23T05:53:29.750Z,6.95
2023-04-23T05:55:56.975Z,6.22
2023-04-23T05:58:24.259Z,6.95
2023-04-23T06:00:53.078Z,6.57
2023-04-23T06:03:20.786Z,6.57
2023-04-23T06:05:49.725Z,5.97
2023-04-23T06:08:16.955Z,5.85
2023-04-23T06:10:44.193Z,6.25
2023-04-23T06:13:11.445Z,5.88
2023-04-23T06:15:38.635Z,6.60
2023-04-23T06:18:08.729Z,6.68
2023-04-23T06:20:36.210Z,6.05
2023-04-23T06:23:03.196Z,6.97
2023-04-23T06:25:30.351Z,6.80
2023-04-23T06:27:58.407Z,6.15
2023-04-23T06:30:25.380Z,5.82
2023-04-23T06:32:52.993Z,5.97
2023-04-23T06:35:20.147Z,5.72
2023-04-23T06:37:47.145Z,6.30
2023-04-23T06:40:15.070Z,6.20
2023-04-23T06:42:42.945Z,5.80
2023-04-23T06:45:13.649Z,6.18
2023-04-23T06:47:40.953Z,6.47
2023-04-23T06:50:08.711Z,5.93
2023-04-23T06:52:36.653Z,5.90
2023-04-23T06:55:04.753Z,5.40
2023-04-23T06:57:31.651Z,5.60
2023-04-23T06:59:58.669Z,5.57
2023-04-23T07:02:26.501Z,5.15
2023-04-23T07:04:53.535Z,5.75
2023-04-23T07:07:20.916Z,5.90
2023-04-23T07:09:47.825Z,5.40
2023-04-23T07:12:14.893Z,5.90
2023-04-23T07:14:43.318Z,5.82
2023-04-23T07:17:11.544Z,5.20
2023-04-23T07:19:41.838Z,4.85
2023-04-23T07:22:08.798Z,5.30
2023-04-23T07:24:35.994Z,5.15
2023-04-23T07:27:03.597Z,5.78
2023-04-23T07:29:31.271Z,4.65
2023-04-23T07:31:58.288Z,4.93
2023-04-23T07:34:28.866Z,4.82
2023-04-23T07:36:57.952Z,4.25
2023-04-23T07:39:24.864Z,4.28
2023-04-23T07:41:52.247Z,4.43
2023-04-23T07:44:19.343Z,4.78
2023-04-23T07:46:46.475Z,4.53
2023-04-23T07:49:13.455Z,4.10
2023-04-23T07:51:41.796Z,3.72
2023-04-23T07:54:10.107Z,3.70
2023-04-23T07:56:37.494Z,3.88
2023-04-23T07:59:08.003Z,3.72
2023-04-23T08:01:34.918Z,3.55
2023-04-23T08:04:03.593Z,4.15
2023-04-23T08:06:33.941Z,4.15
2023-04-23T08:09:02.878Z,5.13
2023-04-23T08:11:31.366Z,4.32
2023-04-23T08:13:58.538Z,3.80
2023-04-23T08:16:28.881Z,3.92
2023-04-23T08:19:04.983Z,4.28
2023-04-23T08:21:33.985Z,4.45
2023-04-23T08:24:04.041Z,4.15
2023-04-23T08:26:31.637Z,3.80
2023-04-23T08:29:01.025Z,3.83
2023-04-23T08:31:28.752Z,3.45
2023-04-23T08:33:56.116Z,3.58
2023-04-23T08:36:23.545Z,3.45
2023-04-23T08:38:50.830Z,4.10
2023-04-23T08:41:23.586Z,3.90
2023-04-23T08:44:04.456Z,3.33
2023-04-23T08:46:33.388Z,3.40
2023-04-23T08:49:03.781Z,3.25
2023-04-23T08:51:33.757Z,3.17
2023-04-23T08:54:06.338Z,3.10
2023-04-23T08:59:03.894Z,2.45
2023-04-23T09:01:31.676Z,2.45
2023-04-23T09:04:01.053Z,2.70
2023-04-23T09:06:29.023Z,2.63
2023-04-23T09:08:57.672Z,2.75
2023-04-23T09:11:27.343Z,3.10
2023-04-23T09:13:56.969Z,2.72
2023-04-23T09:16:24.427Z,2.58
2023-04-23T09:18:52.785Z,2.33
2023-04-23T09:21:20.886Z,2.33
2023-04-23T09:23:52.523Z,2.20
2023-04-23T09:26:23.612Z,2.00
2023-04-23T09:28:54.120Z,1.77
2023-04-23T09:31:26.116Z,2.55
2023-04-23T09:33:55.824Z,1.58
2023-04-23T09:36:27.459Z,1.70
2023-04-23T09:38:59.218Z,1.38
2023-04-23T09:41:28.369Z,1.10
2023-04-23T09:43:59.421Z,1.40
2023-04-23T09:46:43.609Z,1.30
2023-04-23T09:49:12.649Z,1.38
2023-04-23T09:51:42.069Z,1.25
2023-04-23T09:54:26.300Z,1.40
2023-04-23T09:56:58.158Z,1.15
2023-04-23T09:59:39.949Z,1.10
2023-04-23T10:02:13.850Z,1.35
2023-04-23T10:04:42.489Z,1.23
2023-04-23T10:07:19.810Z,1.33
2023-04-23T10:09:48.513Z,1.27
2023-04-23T10:14:51.099Z,1.33
2023-04-23T10:17:18.255Z,1.23
2023-04-23T10:19:46.081Z,1.30
2023-04-23T10:22:20.256Z,1.50
2023-04-23T10:24:55.469Z,1.17
2023-04-23T10:27:48.449Z,1.17
2023-04-23T10:30:19.281Z,1.40
2023-04-23T10:32:49.820Z,1.02
2023-04-23T10:35:19.651Z,1.02
2023-04-23T10:37:48.565Z,1.23
2023-04-23T10:40:22.090Z,1.23
2023-04-23T10:42:50.709Z,1.40
2023-04-23T10:45:24.864Z,1.00
2023-04-23T10:47:55.995Z,1.17
2023-04-23T10:50:25.485Z,0.90
2023-04-23T10:52:58.053Z,1.27
2023-04-23T10:55:29.407Z,0.93
2023-04-23T10:58:06.375Z,0.95
2023-04-23T11:00:46.750Z,1.00
2023-04-23T11:03:37.961Z,0.90
2023-04-23T11:06:07.432Z,1.15
2023-04-23T11:08:38.575Z,1.20
2023-04-23T11:11:11.748Z,1.30
2023-04-23T11:14:14.765Z,1.17
2023-04-23T11:16:59.881Z,0.90
2023-04-23T11:20:07.297Z,0.80
2023-04-23T11:23:02.776Z,0.80
2023-04-23T11:28:51.598Z,0.95
2023-04-23T11:31:18.863Z,0.80
2023-04-23T11:33:48.981Z,0.70
2023-04-23T11:36:37.696Z,1.00
2023-04-23T11:39:11.130Z,0.93
2023-04-23T11:42:10.741Z,0.90
2023-04-23T11:44:50.469Z,0.75
2023-04-23T11:47:33.490Z,0.98
2023-04-23T11:54:17.136Z,0.80
2023-04-23T11:57:43.143Z,0.80
2023-04-23T12:00:26.766Z,0.82
2023-04-23T12:03:35.406Z,0.70
2023-04-23T12:06:12.139Z,1.00
2023-04-23T12:08:51.313Z,0.85
2023-04-23T12:11:53.202Z,0.77
2023-04-23T12:14:37.672Z,0.80
2023-04-23T12:17:33.091Z,0.70
2023-04-23T12:23:45.381Z,0.60
2023-04-23T12:26:44.545Z,0.80
2023-04-23T12:29:14.400Z,0.80
2023-04-23T12:32:03.922Z,0.73
2023-04-23T12:36:08.929Z,0.70
2023-04-23T12:38:39.769Z,0.80
2023-04-23T12:41:47.522Z,0.77
2023-04-23T12:44:23.933Z,0.65
2023-04-23T12:47:29.418Z,0.90
2023-04-23T12:50:05.261Z,0.90
2023-04-23T12:52:33.449Z,1.00
2023-04-23T12:55:07.188Z,0.80
2023-04-23T12:57:34.274Z,0.70
2023-04-23T13:02:53.110Z,0.50
2023-04-23T13:09:38.940Z,0.90
2023-04-23T13:17:07.363Z,0.90
2023-04-23T13:19:35.724Z,0.90
2023-04-23T13:25:26.563Z,0.70
2023-04-23T13:29:02.524Z,0.70
2023-04-23T13:30:49.256Z,0.60
2023-04-23T13:33:25.678Z,0.80
2023-04-23T13:36:11.134Z,0.55
2023-04-23T13:38:57.188Z,0.80
2023-04-23T13:41:26.880Z,0.65
2023-04-23T13:44:49.526Z,0.40
2023-04-23T13:47:38.581Z,0.63
2023-04-23T13:53:35.333Z,0.52
2023-04-23T13:56:17.263Z,0.77
2023-04-23T13:59:55.618Z,0.60
2023-04-23T14:02:25.874Z,0.60
2023-04-23T14:05:43.882Z,0.80
2023-04-23T14:08:26.049Z,0.70
2023-04-23T14:11:05.025Z,0.65
2023-04-23T14:13:47.095Z,0.77
2023-04-23T14:16:23.680Z,0.77
2023-04-23T14:18:58.832Z,0.63
2023-04-23T14:22:00.063Z,0.80
2023-04-23T14:25:41.622Z,0.68
2023-04-23T14:28:41.406Z,0.60
2023-04-23T14:35:32.252Z,1.10
2023-04-23T14:38:08.360Z,0.90
2023-04-23T14:40:41.596Z,1.15
2023-04-23T14:43:15.440Z,1.25
2023-04-23T14:45:54.493Z,1.02
2023-04-23T14:48:22.103Z,1.50
2023-04-23T14:51:20.066Z,0.98
2023-04-23T15:00:34.251Z,1.25
2023-04-23T15:03:56.090Z,1.20
2023-04-23T15:06:41.161Z,1.00
2023-04-23T15:10:16.360Z,0.80
2023-04-23T15:13:07.616Z,0.90
2023-04-23T15:18:52.475Z,0.70
2023-04-23T15:22:09.285Z,1.00
2023-04-23T15:24:56.321Z,0.60
2023-04-23T15:27:28.117Z,0.98
2023-04-23T15:29:58.697Z,0.85
2023-04-23T15:32:36.753Z,0.70
2023-04-23T15:35:07.267Z,0.70
2023-04-23T15:37:55.554Z,0.73
2023-04-23T15:40:29.637Z,0.80
2023-04-23T15:42:56.609Z,0.70
2023-04-23T15:45:24.406Z,0.80
2023-04-23T15:48:48.384Z,0.85
2023-04-23T15:52:09.977Z,0.68
2023-04-23T15:57:48.142Z,0.60
2023-04-23T16:00:34.441Z,0.60
2023-04-23T16:03:50.586Z,0.70
2023-04-23T16:07:01.664Z,1.15
2023-04-23T16:12:24.003Z,0.55
2023-04-23T16:14:57.412Z,0.80
2023-04-23T16:17:26.163Z,0.88
2023-04-23T16:20:13.082Z,0.70
2023-04-23T16:22:52.756Z,0.77
2023-04-23T16:25:32.962Z,0.80
2023-04-23T16:28:14.332Z,0.95
2023-04-23T16:30:59.827Z,0.88
2023-04-23T16:33:33.295Z,0.68
2023-04-23T16:39:07.475Z,0.82
2023-04-23T16:41:42.707Z,1.08
2023-04-23T16:44:29.497Z,0.80
2023-04-23T16:53:25.308Z,0.77
2023-04-23T16:59:52.835Z,0.80
2023-04-23T17:11:19.707Z,0.65
2023-04-23T17:19:58.941Z,1.00
2023-04-23T17:22:26.293Z,0.82
2023-04-23T17:25:06.729Z,0.80
2023-04-23T17:27:52.386Z,0.80
2023-04-23T17:30:31.622Z,0.90
2023-04-23T17:33:08.962Z,1.00
2023-04-23T17:39:07.873Z,1.00
2023-04-23T17:48:42.126Z,1.02
2023-04-23T17:51:10.740Z,1.45
2023-04-23T17:54:23.257Z,1.30
2023-04-23T17:57:12.001Z,1.20
2023-04-23T18:00:07.574Z,1.00
2023-04-23T18:02:56.749Z,1.30
2023-04-23T18:08:45.178Z,0.70
2023-04-23T18:11:16.174Z,0.80
2023-04-23T18:16:52.219Z,0.60
2023-04-23T18:19:19.558Z,0.60
2023-04-23T18:21:56.688Z,0.90
2023-04-23T18:24:23.693Z,0.50
2023-04-23T18:26:58.559Z,0.65
2023-04-23T18:29:44.740Z,0.60
2023-04-23T18:32:27.438Z,0.70
2023-04-23T18:38:33.235Z,0.60
2023-04-23T18:41:12.757Z,0.85
2023-04-23T18:44:26.716Z,0.70
2023-04-23T18:47:09.274Z,1.33
2023-04-23T18:50:47.655Z,3.15
2023-04-23T18:53:24.180Z,1.30
2023-04-23T18:58:39.618Z,1.20
2023-04-23T19:01:43.380Z,1.08
2023-04-23T19:04:33.140Z,1.35
2023-04-23T19:07:37.293Z,1.30
2023-04-23T19:10:30.004Z,1.20
2023-04-23T19:12:58.047Z,1.55
2023-04-23T19:15:28.187Z,1.48
2023-04-23T19:18:04.206Z,0.93
2023-04-23T19:20:40.065Z,1.00
2023-04-23T19:23:29.082Z,0.80
2023-04-23T19:26:13.205Z,1.00
2023-04-23T19:28:53.766Z,1.40
2023-04-23T19:31:32.781Z,1.25
2023-04-23T19:34:06.091Z,1.05
2023-04-23T19:36:40.551Z,1.23
2023-04-23T19:39:22.708Z,1.60
2023-04-23T19:42:03.777Z,1.20
2023-04-23T19:44:43.350Z,1.17
2023-04-23T19:47:17.388Z,1.10
2023-04-23T19:50:10.030Z,0.90
2023-04-23T19:52:46.542Z,1.20
2023-04-23T19:55:35.195Z,1.10
2023-04-23T19:58:20.193Z,0.80
2023-04-23T20:01:57.672Z,1.00
2023-04-23T20:04:25.285Z,0.98
2023-04-23T20:06:52.377Z,0.90
2023-04-23T20:15:27.412Z,1.17
2023-04-23T20:21:03.248Z,1.00
2023-04-23T20:23:36.268Z,1.13
2023-04-23T20:28:38.617Z,0.95
2023-04-23T20:34:22.255Z,0.90
2023-04-23T20:38:06.889Z,0.80
2023-04-23T20:44:33.069Z,1.02
2023-04-23T20:54:18.850Z,1.00
2023-04-23T20:57:49.621Z,0.82
2023-04-23T21:01:20.433Z,1.20
2023-04-23T21:07:56.949Z,1.17
2023-04-23T21:10:27.093Z,1.17
2023-04-23T21:14:10.280Z,1.27
2023-04-23T21:16:42.979Z,1.08
2023-04-23T21:19:37.574Z,1.00
2023-04-23T21:22:55.171Z,1.30
2023-04-23T21:25:51.102Z,1.10
2023-04-23T21:28:57.463Z,0.85
2023-04-23T21:31:55.903Z,1.00
2023-04-23T21:35:16.143Z,0.90
2023-04-23T21:37:43.178Z,1.35
2023-04-23T21:40:13.042Z,0.90
2023-04-23T21:43:07.309Z,0.90
2023-04-23T21:45:37.235Z,1.08
2023-04-23T21:48:16.442Z,1.50
2023-04-23T21:54:12.071Z,0.70
2023-04-23T21:57:29.007Z,1.02
2023-04-23T22:00:17.475Z,0.95
2023-04-23T22:03:46.944Z,0.93
2023-04-23T22:06:26.078Z,1.25
2023-04-23T22:08:54.692Z,0.70
2023-04-23T22:11:42.524Z,1.00
2023-04-23T22:14:38.710Z,1.00
2023-04-23T22:17:21.476Z,0.90
2023-04-23T22:20:32.352Z,0.90
2023-04-23T22:23:06.504Z,1.23
2023-04-23T22:25:46.084Z,1.10
2023-04-23T22:28:43.866Z,1.15
2023-04-23T22:31:18.495Z,1.25
2023-04-23T22:33:54.974Z,0.90
2023-04-23T22:36:34.926Z,1.23
2023-04-23T22:39:02.348Z,0.93
2023-04-23T22:41:29.532Z,1.10
2023-04-23T22:44:15.105Z,1.00
2023-04-23T22:46:43.243Z,0.98
2023-04-23T22:49:20.733Z,1.20
2023-04-23T22:52:16.363Z,0.90
2023-04-23T22:57:36.907Z,1.02
2023-04-23T23:00:13.587Z,0.93
2023-04-23T23:03:00.064Z,1.05
2023-04-23T23:05:58.524Z,1.00
2023-04-23T23:09:10.835Z,0.95
2023-04-23T23:12:23.275Z,1.17
2023-04-23T23:15:52.567Z,1.23
2023-04-23T23:18:25.355Z,0.95
2023-04-23T23:21:01.264Z,1.02
2023-04-23T23:23:34.468Z,0.90
2023-04-23T23:33:15.406Z,1.00
2023-04-23T23:35:48.297Z,0.85
2023-04-23T23:41:14.964Z,0.93
2023-04-23T23:43:41.903Z,1.02
2023-04-23T23:46:30.879Z,0.80
2023-04-23T23:49:35.763Z,1.60
2023-04-23T23:52:05.758Z,1.10
2023-04-23T23:54:42.050Z,0.88
2023-04-23T23:57:15.517Z,1.17
2023-04-23T23:59:50.040Z,0.85
